Time;durP1;ratioP1;P1;durP2;ratioP2;P2;SDS_P1;SDS_P2;PMS_P1;PMS_P2;Temp;Humidity;BMP_temperature;BMP_pressure;BME280_temperature;BME280_humidity;BME280_pressure;Samples;Min_cycle;Max_cycle;Signal;HPM_P1;HPM_P2
2022/10/17 00:00:15;;;;;;;14.75;4.93;;;10.70;99.90;;;;;;5008252;28;20045;-39
2022/10/17 00:02:41;;;;;;;12.50;3.85;;;10.70;99.90;;;;;;5008007;28;20462;-39
2022/10/17 00:05:07;;;;;;;14.32;3.90;;;10.80;99.90;;;;;;5008721;28;20053;-39
2022/10/17 00:07:32;;;;;;;11.52;4.57;;;10.80;99.90;;;;;;5007549;28;20045;-39
2022/10/17 00:09:58;;;;;;;11.50;4.40;;;10.80;99.90;;;;;;5008253;28;20041;-39
2022/10/17 00:12:23;;;;;;;9.23;4.10;;;10.90;99.90;;;;;;5008144;28;20073;-39
2022/10/17 00:14:49;;;;;;;12.43;5.53;;;10.90;99.90;;;;;;5007817;28;20120;-39
2022/10/17 00:17:15;;;;;;;9.07;4.25;;;10.80;99.90;;;;;;5008372;28;20116;-39
2022/10/17 00:19:42;;;;;;;9.05;4.32;;;11.20;99.90;;;;;;5008446;28;20058;-39
2022/10/17 00:22:07;;;;;;;14.05;4.65;;;10.90;99.90;;;;;;5008407;28;20050;-39
2022/10/17 00:24:33;;;;;;;12.48;4.60;;;11.00;99.90;;;;;;5008268;28;20510;-39
2022/10/17 00:26:59;;;;;;;11.80;4.60;;;11.00;99.90;;;;;;5008355;28;20052;-39
2022/10/17 00:29:24;;;;;;;14.63;4.85;;;11.10;99.90;;;;;;5007835;28;20061;-38
2022/10/17 00:31:54;;;;;;;12.02;4.68;;;11.40;99.90;;;;;;5007292;28;20077;-39
2022/10/17 00:34:20;;;;;;;10.80;4.70;;;11.10;99.90;;;;;;5007713;28;20045;-39
2022/10/17 00:36:46;;;;;;;13.77;5.05;;;11.20;99.90;;;;;;5007750;28;20045;-38
2022/10/17 00:39:12;;;;;;;9.07;4.20;;;11.20;99.90;;;;;;5007926;28;20065;-39
2022/10/17 00:41:37;;;;;;;10.30;4.57;;;11.30;99.90;;;;;;5007761;28;20045;-38
2022/10/17 00:44:26;;;;;;;12.75;4.97;;;11.30;99.90;;;;;;5007052;28;20604;-38
2022/10/17 00:46:52;;;;;;;10.07;4.30;;;11.30;99.90;;;;;;5006963;28;20137;-38
2022/10/17 00:49:18;;;;;;;9.60;4.63;;;11.60;99.90;;;;;;5007588;28;20403;-39
2022/10/17 00:51:54;;;;;;;17.33;6.03;;;11.70;99.90;;;;;;5007314;28;20748;-39
2022/10/17 00:54:24;;;;;;;10.48;4.55;;;11.40;99.90;;;;;;5007000;28;20129;-39
2022/10/17 00:56:50;;;;;;;15.63;5.05;;;11.40;99.90;;;;;;5006870;28;20045;-39
2022/10/17 00:59:21;;;;;;;11.93;4.90;;;11.50;99.90;;;;;;5007337;28;20034;-39
2022/10/17 01:01:56;;;;;;;8.80;5.20;;;11.80;99.90;;;;;;5007368;28;20042;-39
2022/10/17 01:04:21;;;;;;;8.18;4.85;;;11.60;99.90;;;;;;5007652;28;20170;-38
2022/10/17 01:06:47;;;;;;;9.57;4.97;;;11.60;99.90;;;;;;5006895;28;20733;-38
2022/10/17 01:09:13;;;;;;;12.57;5.80;;;12.10;99.90;;;;;;5006658;28;20516;-38
2022/10/17 01:11:51;;;;;;;11.55;5.32;;;11.70;99.90;;;;;;5006930;28;20077;-39
2022/10/17 01:14:30;;;;;;;11.80;5.60;;;11.70;99.90;;;;;;5006864;28;20047;-39
2022/10/17 01:17:04;;;;;;;16.10;6.10;;;11.80;99.90;;;;;;5006173;28;20117;-39
2022/10/17 01:19:50;;;;;;;23.77;6.57;;;11.80;99.90;;;;;;5006828;28;20121;-39
2022/10/17 01:22:16;;;;;;;11.35;6.10;;;12.70;99.90;;;;;;5006874;28;20046;-39
2022/10/17 01:25:00;;;;;;;9.45;6.63;;;12.10;99.90;;;;;;5006784;28;20054;-38
2022/10/17 01:27:54;;;;;;;9.23;5.40;;;13.10;99.90;;;;;;5006960;28;20046;-39
2022/10/17 01:30:55;;;;;;;9.15;5.32;;;11.90;99.90;;;;;;5007099;28;20452;-39
2022/10/17 01:33:30;;;;;;;10.43;6.28;;;11.90;99.90;;;;;;5006893;28;20060;-39
2022/10/17 01:36:00;;;;;;;11.52;6.45;;;12.00;99.90;;;;;;5006754;28;20405;-38
2022/10/17 01:38:38;;;;;;;11.63;6.68;;;11.90;99.90;;;;;;5005543;28;20054;-39
2022/10/17 01:41:33;;;;;;;9.90;6.63;;;12.20;99.90;;;;;;5006141;28;20042;-38
2022/10/17 01:44:07;;;;;;;13.98;6.47;;;12.00;99.90;;;;;;5006277;28;20057;-38
2022/10/17 01:46:38;;;;;;;13.38;6.80;;;12.00;99.90;;;;;;5006578;28;20450;-39
2022/10/17 01:49:07;;;;;;;11.15;6.88;;;12.00;99.90;;;;;;5006721;28;20053;-39
2022/10/17 01:51:47;;;;;;;10.63;6.93;;;12.00;99.90;;;;;;5006182;28;20111;-38
2022/10/17 01:54:24;;;;;;;11.73;6.68;;;11.90;99.90;;;;;;5005833;28;20518;-39
2022/10/17 01:56:56;;;;;;;11.50;6.15;;;11.90;99.90;;;;;;5005930;28;20046;-39
2022/10/17 01:59:29;;;;;;;14.70;6.22;;;11.80;99.90;;;;;;5006483;28;20095;-38
2022/10/17 02:01:58;;;;;;;10.02;6.70;;;11.70;99.90;;;;;;5005985;28;20042;-39
2022/10/17 02:04:25;;;;;;;14.80;8.02;;;12.10;99.90;;;;;;5006324;28;20119;-39
2022/10/17 02:06:50;;;;;;;9.82;5.85;;;11.70;99.90;;;;;;5006187;28;20350;-39
2022/10/17 02:09:17;;;;;;;10.50;7.18;;;11.70;99.90;;;;;;5006623;28;20073;-39
2022/10/17 02:12:02;;;;;;;14.65;7.45;;;11.70;99.90;;;;;;5006278;28;20348;-38
2022/10/17 02:14:39;;;;;;;10.90;7.00;;;11.60;99.90;;;;;;5006294;28;20050;-38
2022/10/17 02:17:16;;;;;;;9.75;7.18;;;11.60;99.90;;;;;;5004241;28;20231;-39
2022/10/17 02:20:00;;;;;;;17.95;7.68;;;11.60;99.90;;;;;;5006317;28;20038;-38
2022/10/17 02:22:42;;;;;;;11.95;7.35;;;11.50;99.90;;;;;;5005787;28;20081;-39
2022/10/17 02:25:22;;;;;;;11.60;7.70;;;11.50;99.90;;;;;;5006065;28;20060;-39
2022/10/17 02:27:55;;;;;;;12.00;8.27;;;11.50;99.90;;;;;;5006444;28;20522;-38
2022/10/17 02:30:20;;;;;;;13.07;8.93;;;11.50;99.90;;;;;;5008983;28;20092;-39
2022/10/17 02:32:54;;;;;;;12.52;8.77;;;11.50;99.90;;;;;;5010405;28;20085;-39
2022/10/17 02:35:21;;;;;;;17.25;9.18;;;11.50;99.90;;;;;;5010261;28;20064;-39
2022/10/17 02:37:47;;;;;;;10.93;8.20;;;11.50;99.90;;;;;;5010238;28;20057;-38
2022/10/17 02:40:16;;;;;;;11.68;9.00;;;11.40;99.90;;;;;;5010091;28;20053;-39
2022/10/17 02:42:44;;;;;;;13.23;9.32;;;11.40;99.90;;;;;;5010272;28;20388;-39
2022/10/17 02:45:11;;;;;;;13.95;9.00;;;11.60;99.90;;;;;;5009841;28;20049;-39
2022/10/17 02:48:11;;;;;;;13.98;9.45;;;12.40;99.90;;;;;;5009795;28;20041;-39
2022/10/17 02:50:52;;;;;;;17.02;9.57;;;11.50;99.90;;;;;;4999140;28;20407;-39
2022/10/17 02:53:27;;;;;;;13.20;9.05;;;11.50;99.90;;;;;;5009173;28;20049;-39
2022/10/17 02:55:59;;;;;;;14.13;9.45;;;11.70;99.90;;;;;;5009726;28;20042;-39
2022/10/17 02:58:29;;;;;;;13.82;9.85;;;11.80;99.90;;;;;;5009751;28;20438;-39
2022/10/17 03:00:55;;;;;;;12.27;10.27;;;11.50;99.90;;;;;;5009949;28;20042;-38
2022/10/17 03:03:25;;;;;;;10.00;9.00;;;11.60;99.90;;;;;;5009651;28;20046;-39
2022/10/17 03:05:51;;;;;;;12.40;9.20;;;11.60;99.90;;;;;;5009595;28;20041;-39
2022/10/17 03:08:18;;;;;;;11.23;9.68;;;11.60;99.90;;;;;;5009372;28;20037;-38
2022/10/17 03:10:43;;;;;;;15.27;9.30;;;11.60;99.90;;;;;;5009438;28;20460;-38
2022/10/17 03:13:09;;;;;;;12.40;9.43;;;12.20;99.90;;;;;;5009391;28;20053;-39
2022/10/17 03:15:35;;;;;;;18.65;9.90;;;12.30;99.90;;;;;;5009812;28;20057;-42
2022/10/17 03:18:01;;;;;;;15.63;10.30;;;12.70;99.90;;;;;;5009490;28;20068;-39
2022/10/17 03:20:26;;;;;;;14.25;9.52;;;11.70;99.90;;;;;;5009688;28;20045;-39
2022/10/17 03:22:52;;;;;;;15.77;10.05;;;11.70;99.90;;;;;;5009026;28;20401;-39
2022/10/17 03:25:17;;;;;;;16.38;10.55;;;11.70;99.90;;;;;;5008681;28;20057;-38
2022/10/17 03:27:43;;;;;;;15.35;10.32;;;12.50;99.90;;;;;;5009036;28;20100;-39
2022/10/17 03:30:09;;;;;;;13.80;11.02;;;11.80;99.90;;;;;;5007361;28;20124;-39
2022/10/17 03:32:35;;;;;;;11.15;9.65;;;11.80;99.90;;;;;;5007293;28;20408;-39
2022/10/17 03:35:01;;;;;;;11.50;10.10;;;12.20;99.90;;;;;;5008972;28;20053;-39
2022/10/17 03:37:27;;;;;;;13.73;9.98;;;11.80;99.90;;;;;;5008673;28;20398;-39
2022/10/17 03:39:53;;;;;;;14.02;10.82;;;11.80;99.90;;;;;;5008703;28;20125;-39
2022/10/17 03:42:18;;;;;;;14.98;10.35;;;11.80;99.90;;;;;;5008377;28;20071;-39
2022/10/17 03:44:44;;;;;;;12.05;9.88;;;11.90;99.90;;;;;;5008826;28;20049;-39
2022/10/17 03:47:10;;;;;;;16.13;10.27;;;12.00;99.90;;;;;;5008250;28;20124;-38
2022/10/17 03:49:35;;;;;;;12.43;11.18;;;11.90;99.90;;;;;;5008630;28;20050;-38
2022/10/17 03:52:01;;;;;;;11.80;10.60;;;11.90;99.90;;;;;;5008585;28;20125;-38
2022/10/17 03:54:27;;;;;;;12.98;11.30;;;11.90;99.90;;;;;;5008122;28;20153;-39
2022/10/17 03:56:53;;;;;;;15.10;11.15;;;11.90;99.90;;;;;;5008212;28;20046;-38
2022/10/17 03:59:18;;;;;;;20.42;11.43;;;11.80;99.90;;;;;;5008274;28;20045;-39
2022/10/17 04:01:44;;;;;;;15.73;11.93;;;11.90;99.90;;;;;;5008098;28;20041;-39
2022/10/17 04:04:10;;;;;;;13.88;10.90;;;11.50;99.90;;;;;;5007905;28;20146;-38
2022/10/17 04:06:36;;;;;;;16.75;12.43;;;11.90;99.90;;;;;;5008241;28;20134;-39
2022/10/17 04:09:04;;;;;;;14.70;11.63;;;12.70;99.90;;;;;;5023245;28;20046;-39
2022/10/17 04:11:29;;;;;;;14.32;12.00;;;11.90;99.90;;;;;;5007969;28;20041;-39
2022/10/17 04:13:58;;;;;;;16.80;13.00;;;11.90;99.90;;;;;;5007911;28;20372;-38
2022/10/17 04:16:25;;;;;;;19.02;12.60;;;12.00;99.90;;;;;;5007550;28;20065;-39
2022/10/17 04:18:56;;;;;;;15.13;12.27;;;12.10;99.90;;;;;;5007908;28;20648;-38
2022/10/17 04:21:23;;;;;;;17.23;12.95;;;12.10;99.90;;;;;;5007996;28;20563;-39
2022/10/17 04:23:56;;;;;;;18.80;14.00;;;12.10;99.90;;;;;;5008395;28;20085;-39
2022/10/17 04:26:22;;;;;;;15.25;13.07;;;12.10;99.90;;;;;;5007987;28;20128;-39
2022/10/17 04:28:48;;;;;;;15.75;13.63;;;12.10;99.90;;;;;;5007702;28;20566;-39
2022/10/17 04:31:14;;;;;;;16.85;14.02;;;12.40;99.90;;;;;;5007465;28;20572;-38
2022/10/17 04:33:40;;;;;;;16.73;13.80;;;12.10;99.90;;;;;;5007838;28;20041;-39
2022/10/17 04:36:11;;;;;;;16.50;13.27;;;12.00;99.90;;;;;;5007809;28;20038;-39
2022/10/17 04:38:37;;;;;;;16.30;13.85;;;12.20;99.90;;;;;;5007480;28;20041;-39
2022/10/17 04:41:05;;;;;;;17.10;13.50;;;12.10;99.90;;;;;;5007784;28;20454;-39
2022/10/17 04:43:33;;;;;;;17.10;13.65;;;12.20;99.90;;;;;;5007261;28;20067;-39
2022/10/17 04:46:00;;;;;;;17.55;14.45;;;12.90;99.90;;;;;;5007658;28;20467;-39
2022/10/17 04:48:26;;;;;;;18.83;15.18;;;13.00;99.90;;;;;;5006947;28;20068;-39
2022/10/17 04:51:03;;;;;;;21.45;14.98;;;12.20;99.90;;;;;;5006961;28;20041;-39
2022/10/17 04:53:34;;;;;;;19.88;15.20;;;12.20;99.90;;;;;;5006416;28;20483;-39
2022/10/17 04:56:00;;;;;;;21.05;16.05;;;13.10;99.90;;;;;;5007443;28;20050;-39
2022/10/17 04:58:28;;;;;;;19.15;15.75;;;12.30;99.90;;;;;;5006774;28;20377;-39
2022/10/17 05:00:54;;;;;;;20.55;16.35;;;12.60;99.90;;;;;;5006842;28;20514;-38
2022/10/17 05:03:20;;;;;;;19.65;16.60;;;12.30;99.90;;;;;;5007110;28;20041;-39
2022/10/17 05:05:46;;;;;;;23.17;16.15;;;12.40;99.90;;;;;;5007558;28;20053;-38
2022/10/17 05:08:12;;;;;;;25.05;17.63;;;12.60;99.90;;;;;;5007666;28;20488;-38
2022/10/17 05:10:43;;;;;;;24.33;17.58;;;12.40;99.90;;;;;;5007188;28;20121;-39
2022/10/17 05:13:09;;;;;;;19.97;17.00;;;12.30;99.90;;;;;;5007051;28;20050;-38
2022/10/17 05:15:36;;;;;;;21.33;16.63;;;12.30;99.90;;;;;;5006336;28;20097;-38
2022/10/17 05:18:03;;;;;;;22.58;17.85;;;12.40;99.90;;;;;;5006536;28;20049;-39
2022/10/17 05:20:29;;;;;;;25.20;17.55;;;12.40;99.90;;;;;;5006662;28;20041;-38
2022/10/17 05:22:57;;;;;;;20.10;17.92;;;12.40;99.90;;;;;;5006870;28;20044;-38
2022/10/17 05:25:23;;;;;;;22.45;17.08;;;13.20;99.90;;;;;;5006570;28;20380;-38
2022/10/17 05:27:48;;;;;;;24.10;17.65;;;12.50;99.90;;;;;;5006967;28;20046;-38
2022/10/17 05:30:14;;;;;;;24.75;17.63;;;12.50;99.90;;;;;;5006684;28;20052;-39
2022/10/17 05:32:40;;;;;;;26.98;18.10;;;12.50;99.90;;;;;;5006075;28;20111;-39
2022/10/17 05:35:06;;;;;;;23.42;17.67;;;12.80;99.90;;;;;;5006658;28;20432;-38
2022/10/17 05:37:31;;;;;;;23.90;18.48;;;12.60;99.90;;;;;;5006404;28;20530;-39
2022/10/17 05:39:57;;;;;;;26.75;18.23;;;12.60;99.90;;;;;;5006977;28;20045;-38
2022/10/17 05:42:23;;;;;;;22.63;16.65;;;12.60;99.90;;;;;;5006595;28;20037;-38
2022/10/17 05:44:49;;;;;;;23.85;18.58;;;12.70;99.90;;;;;;5006712;28;20052;-39
2022/10/17 05:47:14;;;;;;;24.40;19.17;;;12.70;99.90;;;;;;5006808;28;20046;-38
2022/10/17 05:49:40;;;;;;;22.83;18.73;;;12.70;99.90;;;;;;5006355;28;20175;-39
2022/10/17 05:52:06;;;;;;;24.40;18.73;;;13.40;99.90;;;;;;5006711;28;20053;-39
2022/10/17 05:54:32;;;;;;;23.48;17.83;;;12.70;99.90;;;;;;5001945;28;20487;-39
2022/10/17 05:56:57;;;;;;;29.23;18.55;;;12.80;99.90;;;;;;5006515;28;20042;-39
2022/10/17 05:59:24;;;;;;;23.42;17.55;;;12.80;99.90;;;;;;5006720;28;20045;-38
2022/10/17 06:01:50;;;;;;;23.27;18.52;;;12.80;99.90;;;;;;5006567;28;20073;-39
2022/10/17 06:04:16;;;;;;;21.38;17.52;;;12.80;99.90;;;;;;5006867;28;20081;-39
2022/10/17 06:06:41;;;;;;;23.42;18.40;;;12.90;99.90;;;;;;5010128;28;20082;-39
2022/10/17 06:09:07;;;;;;;25.00;18.83;;;13.50;99.90;;;;;;5010071;28;20152;-39
2022/10/17 06:11:34;;;;;;;24.17;18.33;;;12.90;99.90;;;;;;5009657;28;20411;-38
2022/10/17 06:14:00;;;;;;;25.35;18.10;;;13.00;99.90;;;;;;5010282;28;20121;-38
2022/10/17 06:16:26;;;;;;;23.77;16.65;;;13.00;99.90;;;;;;5009636;28;20200;-38
2022/10/17 06:18:51;;;;;;;23.45;17.25;;;13.10;99.90;;;;;;5009247;28;20052;-38
2022/10/17 06:21:21;;;;;;;22.60;17.35;;;13.40;99.90;;;;;;5009574;28;20042;-39
2022/10/17 06:23:47;;;;;;;24.15;17.35;;;13.10;99.90;;;;;;5009859;28;20046;-38
2022/10/17 06:26:13;;;;;;;26.00;17.67;;;13.20;99.90;;;;;;5010083;28;20046;-39
2022/10/17 06:28:39;;;;;;;24.25;17.92;;;13.30;99.90;;;;;;5009348;28;20446;-39
2022/10/17 06:31:11;;;;;;;22.55;17.25;;;13.30;99.90;;;;;;5010290;28;20053;-39
2022/10/17 06:33:37;;;;;;;22.45;16.85;;;13.30;99.90;;;;;;5009244;28;20049;-39
2022/10/17 06:36:04;;;;;;;25.83;17.85;;;13.90;99.90;;;;;;5009451;28;20049;-39
2022/10/17 06:38:30;;;;;;;23.27;17.55;;;13.40;99.90;;;;;;5009258;28;20123;-39
2022/10/17 06:41:10;;;;;;;20.55;16.23;;;13.40;99.90;;;;;;5009784;28;20038;-39
2022/10/17 06:43:39;;;;;;;20.48;16.42;;;13.40;99.90;;;;;;5009495;28;20057;-39
2022/10/17 06:46:05;;;;;;;22.63;17.38;;;13.40;99.90;;;;;;5009594;28;20488;-39
2022/10/17 06:48:32;;;;;;;22.75;16.10;;;13.50;99.90;;;;;;5009497;28;20041;-39
2022/10/17 06:51:01;;;;;;;23.13;16.33;;;13.50;99.90;;;;;;5009845;28;20041;-39
2022/10/17 06:53:28;;;;;;;23.35;16.27;;;13.50;99.90;;;;;;5009751;28;20046;-39
2022/10/17 06:55:57;;;;;;;20.27;16.17;;;13.50;99.90;;;;;;5009519;28;20064;-39
2022/10/17 06:58:22;;;;;;;23.80;16.20;;;13.60;99.90;;;;;;5009635;28;20077;-39
2022/10/17 07:00:48;;;;;;;18.98;14.50;;;13.70;99.90;;;;;;5009606;28;20080;-39
2022/10/17 07:03:13;;;;;;;19.17;15.15;;;13.70;99.90;;;;;;5009674;28;20045;-39
2022/10/17 07:05:39;;;;;;;19.70;16.35;;;13.80;99.90;;;;;;5009149;28;20041;-39
2022/10/17 07:08:05;;;;;;;19.70;15.07;;;13.90;99.90;;;;;;5009432;28;20045;-39
2022/10/17 07:10:36;;;;;;;16.45;14.23;;;14.00;99.90;;;;;;5009198;28;20223;-39
2022/10/17 07:13:02;;;;;;;17.83;14.13;;;14.10;99.90;;;;;;5009244;28;20043;-39
2022/10/17 07:15:28;;;;;;;17.02;13.52;;;14.20;99.90;;;;;;5008530;28;20076;-39
2022/10/17 07:17:54;;;;;;;17.33;13.85;;;14.50;99.90;;;;;;5009471;28;20054;-39
2022/10/17 07:20:19;;;;;;;17.23;13.77;;;14.30;99.90;;;;;;5009520;28;20042;-39
2022/10/17 07:22:45;;;;;;;15.70;12.65;;;14.40;99.90;;;;;;5009279;28;20113;-39
2022/10/17 07:25:11;;;;;;;26.02;15.35;;;14.50;99.90;;;;;;5008947;28;20054;-39
2022/10/17 07:27:36;;;;;;;15.32;12.65;;;14.60;99.90;;;;;;5007349;28;20195;-39
2022/10/17 07:30:02;;;;;;;14.85;11.85;;;15.00;99.90;;;;;;5008860;28;20080;-39
2022/10/17 07:32:28;;;;;;;13.80;12.40;;;14.80;99.90;;;;;;5009160;28;20347;-39
2022/10/17 07:34:54;;;;;;;14.27;12.43;;;14.80;99.90;;;;;;5008455;28;20044;-39
2022/10/17 07:37:19;;;;;;;13.68;11.43;;;14.90;99.90;;;;;;5008700;28;20286;-39
2022/10/17 07:39:45;;;;;;;18.95;12.63;;;15.00;99.90;;;;;;5008209;28;20042;-39
2022/10/17 07:42:11;;;;;;;15.98;12.07;;;15.10;99.90;;;;;;5008501;28;20100;-39
2022/10/17 07:44:36;;;;;;;17.75;11.93;;;15.10;99.90;;;;;;5008053;28;20042;-39
2022/10/17 07:47:03;;;;;;;13.05;10.15;;;15.10;99.90;;;;;;5008854;28;20052;-39
2022/10/17 07:49:28;;;;;;;13.68;11.07;;;15.50;99.90;;;;;;5008733;28;20053;-39
2022/10/17 07:51:54;;;;;;;15.90;10.43;;;15.70;99.90;;;;;;5008118;28;20607;-39
2022/10/17 07:54:20;;;;;;;15.70;10.18;;;15.50;99.90;;;;;;5008465;28;20057;-39
2022/10/17 07:56:49;;;;;;;13.18;10.65;;;15.60;99.90;;;;;;5008836;28;20046;-39
2022/10/17 07:59:18;;;;;;;11.38;9.75;;;16.10;99.90;;;;;;5008555;28;20503;-39
2022/10/17 08:01:44;;;;;;;14.77;9.85;;;15.80;99.90;;;;;;5008425;28;20057;-39
2022/10/17 08:04:10;;;;;;;11.98;9.30;;;15.90;99.90;;;;;;5008439;28;20503;-39
2022/10/17 08:06:35;;;;;;;12.13;9.50;;;15.90;99.90;;;;;;5008762;28;20046;-39
2022/10/17 08:09:01;;;;;;;10.02;8.80;;;15.90;99.90;;;;;;5008398;28;20187;-39
2022/10/17 08:11:27;;;;;;;13.27;8.85;;;15.90;99.90;;;;;;5008687;28;20042;-39
2022/10/17 08:13:52;;;;;;;10.85;8.40;;;15.90;99.90;;;;;;5007660;28;20045;-39
2022/10/17 08:16:18;;;;;;;13.98;9.35;;;16.10;99.90;;;;;;5008171;28;20054;-39
2022/10/17 08:18:44;;;;;;;11.93;8.75;;;16.20;99.90;;;;;;5007872;28;20103;-39
2022/10/17 08:21:12;;;;;;;12.43;8.32;;;16.40;99.90;;;;;;5008200;28;20049;-39
2022/10/17 08:23:37;;;;;;;12.75;7.68;;;16.60;99.90;;;;;;5007646;28;20488;-39
2022/10/17 08:26:09;;;;;;;14.85;7.97;;;16.70;99.90;;;;;;5007946;28;20056;-38
2022/10/17 08:28:35;;;;;;;6.60;4.68;;;16.70;99.90;;;;;;5007371;28;20076;-32
2022/10/17 08:31:03;;;;;;;7.65;5.38;;;16.70;99.90;;;;;;5001610;28;20093;-41
2022/10/17 08:33:29;;;;;;;5.57;2.20;;;16.70;99.90;;;;;;4997910;28;20088;-40
2022/10/17 08:35:56;;;;;;;10.65;6.97;;;16.70;99.90;;;;;;5005555;28;20037;-38
2022/10/17 08:38:22;;;;;;;9.43;6.93;;;16.60;99.90;;;;;;5006736;28;20503;-36
2022/10/17 08:40:48;;;;;;;11.90;7.53;;;16.60;99.90;;;;;;5005774;28;20072;-36
2022/10/17 08:43:17;;;;;;;14.70;7.40;;;16.50;99.90;;;;;;5005899;28;20042;-39
2022/10/17 08:45:42;;;;;;;8.43;4.30;;;16.50;99.90;;;;;;5006280;28;20696;-38
2022/10/17 08:48:19;;;;;;;7.93;6.70;;;16.50;99.90;;;;;;5006720;28;20042;-39
2022/10/17 08:50:59;;;;;;;9.32;5.18;;;16.50;99.90;;;;;;5006515;28;20041;-42
2022/10/17 08:53:37;;;;;;;10.27;6.43;;;16.50;99.90;;;;;;5006607;28;20048;-42
2022/10/17 08:56:14;;;;;;;7.88;5.65;;;16.40;99.90;;;;;;5005399;28;20045;-41
2022/10/17 08:58:39;;;;;;;11.10;7.45;;;16.40;99.90;;;;;;5000304;28;20045;-39
2022/10/17 09:01:26;;;;;;;10.48;7.38;;;16.50;99.90;;;;;;5001294;28;20041;-38
2022/10/17 09:04:04;;;;;;;13.02;6.88;;;16.50;99.90;;;;;;5011224;28;20057;-39
2022/10/17 09:06:38;;;;;;;9.20;6.88;;;16.60;99.90;;;;;;5006193;28;20041;-38
2022/10/17 09:09:24;;;;;;;9.77;6.93;;;16.60;99.90;;;;;;5005996;28;20041;-39
2022/10/17 09:11:50;;;;;;;13.88;8.52;;;16.50;99.90;;;;;;5004844;28;20154;-39
2022/10/17 09:14:39;;;;;;;10.57;7.32;;;16.60;99.90;;;;;;5005246;28;20137;-40
2022/10/17 09:17:10;;;;;;;10.10;7.57;;;16.50;99.90;;;;;;5005401;28;20131;-47
2022/10/17 09:19:59;;;;;;;12.50;6.20;;;16.50;99.90;;;;;;5004873;28;20088;-42
2022/10/17 09:22:31;;;;;;;11.27;6.60;;;16.50;99.90;;;;;;5005594;28;20146;-38
2022/10/17 09:24:59;;;;;;;;;;;16.50;99.90;;;;;;5006008;28;20065;-38
2022/10/17 09:27:45;;;;;;;10.05;6.80;;;16.40;99.90;;;;;;5005493;28;19928;-38
2022/10/17 09:30:38;;;;;;;9.82;7.43;;;16.40;99.90;;;;;;5005488;28;20052;-43
2022/10/17 09:33:11;;;;;;;8.88;5.72;;;16.40;99.90;;;;;;5007340;28;20046;-38
2022/10/17 09:35:38;;;;;;;10.85;6.93;;;16.40;99.90;;;;;;5005787;28;20407;-37
2022/10/17 09:38:04;;;;;;;8.98;6.57;;;16.40;99.90;;;;;;5006291;28;20096;-37
2022/10/17 09:40:34;;;;;;;10.02;7.38;;;16.50;99.90;;;;;;5004796;28;20477;-38
2022/10/17 09:43:03;;;;;;;9.25;6.78;;;16.50;99.90;;;;;;5005662;28;20042;-39
2022/10/17 09:45:37;;;;;;;10.25;7.20;;;16.50;99.90;;;;;;5005494;28;20045;-37
2022/10/17 09:48:25;;;;;;;9.23;6.53;;;16.50;99.90;;;;;;5003462;28;20546;-38
2022/10/17 09:50:52;;;;;;;9.75;7.25;;;16.50;99.90;;;;;;5004721;28;20050;-39
2022/10/17 09:53:26;;;;;;;11.88;7.43;;;16.50;99.90;;;;;;5004844;28;20057;-38
2022/10/17 09:56:00;;;;;;;7.78;6.60;;;16.50;99.90;;;;;;5004677;28;20456;-37
2022/10/17 09:58:43;;;;;;;9.68;6.82;;;16.50;99.90;;;;;;5005135;28;20038;-38
2022/10/17 10:01:29;;;;;;;10.77;8.05;;;16.40;99.90;;;;;;5004415;28;20045;-37
2022/10/17 10:04:15;;;;;;;9.07;4.38;;;16.40;99.90;;;;;;5003569;28;20100;-38
2022/10/17 10:07:01;;;;;;;10.95;8.82;;;16.40;99.90;;;;;;5004755;28;20050;-50
2022/10/17 10:09:30;;;;;;;19.60;9.02;;;16.40;99.90;;;;;;5004994;28;20046;-39
2022/10/17 10:11:57;;;;;;;11.82;8.45;;;16.40;99.90;;;;;;5004496;28;20145;-39
2022/10/17 10:14:34;;;;;;;14.88;8.95;;;16.70;99.90;;;;;;5003585;28;20060;-37
2022/10/17 10:17:02;;;;;;;13.57;9.35;;;16.30;99.90;;;;;;5005223;28;20100;-38
2022/10/17 10:19:30;;;;;;;14.25;9.15;;;16.20;99.90;;;;;;5005585;28;20484;-37
2022/10/17 10:21:59;;;;;;;15.43;9.90;;;16.50;99.90;;;;;;5005812;28;20053;-39
2022/10/17 10:24:26;;;;;;;12.57;9.65;;;16.20;99.90;;;;;;5005851;28;20147;-39
2022/10/17 10:26:55;;;;;;;16.67;9.85;;;16.20;99.90;;;;;;5005158;28;20061;-45
2022/10/17 10:29:29;;;;;;;12.73;9.73;;;16.20;99.90;;;;;;5005303;28;20522;-41
2022/10/17 10:32:17;;;;;;;15.23;9.48;;;16.20;99.90;;;;;;5006354;28;20050;-43
2022/10/17 10:34:52;;;;;;;14.48;9.40;;;16.20;99.90;;;;;;5002273;28;20056;-41
2022/10/17 10:37:24;;;;;;;15.77;10.77;;;16.50;99.90;;;;;;5005640;28;20046;-41
2022/10/17 10:40:03;;;;;;;14.25;10.05;;;16.10;99.90;;;;;;5005206;28;20038;-40
2022/10/17 10:42:30;;;;;;;15.63;10.77;;;16.10;99.90;;;;;;5004483;28;20064;-38
2022/10/17 10:45:22;;;;;;;13.88;11.30;;;16.10;99.90;;;;;;5003645;28;20556;-38
2022/10/17 10:47:57;;;;;;;16.90;11.43;;;16.10;99.90;;;;;;5005016;28;20061;-38
2022/10/17 10:50:45;;;;;;;17.13;11.70;;;16.00;99.90;;;;;;5006058;28;20165;-39
2022/10/17 10:53:23;;;;;;;20.52;11.35;;;16.00;99.90;;;;;;5009115;28;20132;-36
2022/10/17 10:56:33;;;;;;;17.60;12.40;;;16.00;99.90;;;;;;5008103;28;20566;-37
2022/10/17 10:59:07;;;;;;;21.35;12.52;;;16.00;99.90;;;;;;5008223;28;20041;-40
2022/10/17 11:01:53;;;;;;;23.45;12.90;;;16.00;99.90;;;;;;5008109;28;20038;-42
2022/10/17 11:04:37;;;;;;;30.42;14.82;;;16.00;99.90;;;;;;5008818;28;20104;-41
2022/10/17 11:07:31;;;;;;;21.15;13.52;;;15.90;99.90;;;;;;5009281;28;20053;-44
2022/10/17 11:10:13;;;;;;;26.63;14.05;;;16.00;99.90;;;;;;5004475;28;20167;-39
2022/10/17 11:12:49;;;;;;;30.73;14.38;;;16.00;99.90;;;;;;5008123;28;20048;-39
2022/10/17 11:15:24;;;;;;;23.33;14.73;;;16.00;99.90;;;;;;5007243;28;20129;-37
2022/10/17 11:18:10;;;;;;;21.40;14.40;;;16.00;99.90;;;;;;5007732;28;20054;-44
2022/10/17 11:21:02;;;;;;;24.73;16.05;;;16.00;99.90;;;;;;5008567;28;20041;-44
2022/10/17 11:24:00;;;;;;;29.80;17.90;;;16.10;99.90;;;;;;5008466;28;20050;-45
2022/10/17 11:26:49;;;;;;;32.70;17.77;;;16.10;99.90;;;;;;4995989;28;20061;-42
2022/10/17 11:29:15;;;;;;;33.30;17.63;;;16.10;99.90;;;;;;5007793;28;20391;-43
2022/10/17 11:31:52;;;;;;;34.30;17.88;;;16.10;99.90;;;;;;5007884;28;20050;-39
2022/10/17 11:34:21;;;;;;;32.75;16.25;;;16.10;99.90;;;;;;5007204;28;20142;-49
2022/10/17 11:36:50;;;;;;;35.15;18.25;;;16.10;99.90;;;;;;5009918;28;20042;-44
2022/10/17 11:39:23;;;;;;;34.10;17.42;;;16.30;99.90;;;;;;5008918;28;20092;-40
2022/10/17 11:42:32;;;;;;;38.03;18.55;;;16.10;99.90;;;;;;5007954;28;20085;-40
2022/10/17 11:45:03;;;;;;;27.23;16.50;;;16.10;99.90;;;;;;4998217;28;20752;-40
2022/10/17 11:47:43;;;;;;;27.08;16.08;;;16.10;99.90;;;;;;5008513;28;20437;-40
2022/10/17 11:50:30;;;;;;;26.60;15.98;;;16.10;99.90;;;;;;5008325;28;20096;-41
2022/10/17 11:53:10;;;;;;;35.10;17.85;;;16.10;99.90;;;;;;5008121;28;20041;-44
2022/10/17 11:55:37;;;;;;;27.00;16.73;;;16.10;99.90;;;;;;5008675;28;20054;-45
2022/10/17 11:58:32;;;;;;;27.65;16.17;;;16.10;99.90;;;;;;5008328;28;20124;-40
2022/10/17 12:01:25;;;;;;;34.13;17.02;;;16.20;99.90;;;;;;5008236;28;20038;-40
2022/10/17 12:04:09;;;;;;;30.77;17.42;;;16.20;99.90;;;;;;5007944;28;20487;-42
2022/10/17 12:06:56;;;;;;;39.83;18.35;;;16.20;99.90;;;;;;5008305;28;20057;-36
2022/10/17 12:09:48;;;;;;;24.88;16.15;;;16.20;99.90;;;;;;5007263;28;20069;-39
2022/10/17 12:12:43;;;;;;;24.17;16.08;;;16.20;99.90;;;;;;5006866;28;20088;-37
2022/10/17 12:15:24;;;;;;;30.60;16.55;;;16.20;99.90;;;;;;5002687;28;20054;-38
2022/10/17 12:18:01;;;;;;;31.48;15.43;;;16.20;99.90;;;;;;5007332;28;20058;-36
2022/10/17 12:20:31;;;;;;;22.38;13.38;;;16.20;99.90;;;;;;5007188;28;20093;-36
2022/10/17 12:23:09;;;;;;;20.73;13.55;;;16.30;99.90;;;;;;5007367;28;20100;-36
2022/10/17 12:25:53;;;;;;;19.52;12.85;;;16.40;99.90;;;;;;5007374;28;20097;-36
2022/10/17 12:28:19;;;;;;;28.13;13.73;;;;;;;;;;5006702;28;20057;-36
2022/10/17 12:30:59;;;;;;;26.23;14.30;;;;;;;;;;5007183;28;20038;-38
2022/10/17 12:33:29;;;;;;;16.35;12.23;;;16.70;99.90;;;;;;5006762;28;20048;-38
2022/10/17 12:36:16;;;;;;;26.77;15.15;;;16.90;99.90;;;;;;5006870;28;20042;-38
2022/10/17 12:38:43;;;;;;;16.92;12.27;;;16.90;99.90;;;;;;5006902;28;20046;-38
2022/10/17 12:41:09;;;;;;;19.48;12.40;;;17.00;99.90;;;;;;5006651;28;20837;-38
2022/10/17 12:43:47;;;;;;;16.65;12.27;;;17.20;99.90;;;;;;5006927;28;20042;-36
2022/10/17 12:46:51;;;;;;;15.75;11.57;;;17.30;99.90;;;;;;5007328;28;20045;-38
2022/10/17 12:49:37;;;;;;;20.77;13.60;;;17.30;99.90;;;;;;5007227;28;20063;-37
2022/10/17 12:52:19;;;;;;;29.35;14.95;;;17.40;99.90;;;;;;5006624;28;20396;-37
2022/10/17 12:55:03;;;;;;;19.20;12.40;;;17.40;99.90;;;;;;5006823;28;20096;-37